M I D A S
Marine Information and Data Acquisition System
Tripno 1580 of the Zeeleeuw from 2008-10-03 05:58:13 to 2008-10-03 10:57:45
Back to CruiseResearch ActivitiesStationsMapUnderway DataData graphs

EquipmentUnitsComment
TimeDGPSUTC
LatitudeDGPSDM.mWGS84
LongitudeDGPSDM.mWGS84
HeadingGyrodeg 
SOGDGPSknotsSpeed over ground
COGDGPSdegCourse over ground
DepthEcho soundermeters200 kHz
Missing or incorrect values are displayed as -999
Navigation data collected by the RV Zeeleeuw from 2008-10-03 05:58:13 to 2008-10-03 10:57:45
Time Latitude Longitude Heading SOG COG Depth
2008-10-03 06:00:20 51°13.621 2°56.042 108.7 0.1 242 -999
2008-10-03 06:02:20 51°13.674 2°55.845 116.4 4.59 297 -999
2008-10-03 06:04:20 51°13.7 2°55.758 70 0.29 9 -999
2008-10-03 06:06:20 51°13.748 2°55.718 353.3 3.79 339 -999
2008-10-03 06:08:20 51°13.984 2°55.52 334.3 8.69 331 -999
2008-10-03 06:10:20 51°14.268 2°55.236 326.1 11 321 -999
2008-10-03 06:12:20 51°14.545 2°54.776 322.8 12 320 -999
2008-10-03 06:14:20 51°14.895 2°54.462 334.1 11.9 331 -999
2008-10-03 06:16:20 51°15.245 2°54.155 333.1 12.19 331 -999
2008-10-03 06:18:20 51°15.594 2°53.837 331.6 12 330 -999
2008-10-03 06:20:20 51°15.949 2°53.536 335.8 12 334 -999
2008-10-03 06:22:20 51°16.308 2°53.253 336 12.09 334 -999
2008-10-03 06:24:20 51°16.674 2°52.977 337.6 12.09 334 -999
2008-10-03 06:26:20 51°17.038 2°52.701 335.8 12.19 333 -999
2008-10-03 06:28:20 51°17.403 2°52.812 28.3 11.8 35 -999
2008-10-03 06:30:20 51°17.68 2°53.252 45.7 11.69 48 -999
2008-10-03 06:32:20 51°17.989 2°53.641 38.3 11.59 42 -999
2008-10-03 06:34:20 51°18.305 2°54.015 37.7 11.69 37 -999
2008-10-03 06:36:20 51°18.589 2°54.442 50.2 12 44 -999
2008-10-03 06:38:20 51°18.833 2°54.92 51.6 11.59 52 -999
2008-10-03 06:40:20 51°19.083 2°55.386 51.1 11.59 50 -999
2008-10-03 06:42:20 51°19.343 2°55.854 50.2 11.69 51 -999
2008-10-03 06:44:20 51°19.604 2°56.308 50 11.59 42 -999
2008-10-03 06:46:20 51°19.861 2°56.763 51.7 11.4 47 -999
2008-10-03 06:48:20 51°20.122 2°57.215 49.8 11.5 45 -999
2008-10-03 06:50:20 51°20.383 2°57.668 50 11.5 47 -999
2008-10-03 06:52:20 51°20.646 2°58.12 49.3 11.5 52 -999
2008-10-03 06:54:20 51°20.906 2°58.57 51.6 11.5 46 -999
2008-10-03 06:56:20 51°21.171 2°59.008 48.7 11.59 43 -999
2008-10-03 06:58:20 51°21.432 2°59.461 52.2 11.5 44 -999
2008-10-03 07:00:20 51°21.691 2°59.902 49.8 11.4 42 -999
2008-10-03 07:02:20 51°21.934 3°0.366 56.2 11.5 50 -999
2008-10-03 07:04:20 51°22.131 3°0.879 60.2 11.19 54 -999
2008-10-03 07:06:20 51°22.29 3°1.411 61.6 11.19 61 -999
2008-10-03 07:08:20 51°22.494 3°1.907 60.7 11.3 57 -999
2008-10-03 07:10:20 51°22.631 3°2.227 65 4.2 56 -999
2008-10-03 07:12:20 51°22.664 3°2.313 80.5 1.19 60 -999
2008-10-03 07:14:20 51°22.682 3°2.337 93.4 0.69 25 -999
2008-10-03 07:16:20 51°22.694 3°2.332 108 0.5 316 -999
2008-10-03 07:18:20 51°22.703 3°2.311 116.7 0.5 297 -999
2008-10-03 07:20:20 51°22.713 3°2.284 129.8 0.69 304 -999
2008-10-03 07:22:20 51°22.721 3°2.252 143.3 0.8 282 -999
2008-10-03 07:24:20 51°22.718 3°2.274 107.7 1.5 102 -999
2008-10-03 07:26:20 51°22.842 3°2.306 21.6 3.79 8 -999
2008-10-03 07:28:20 51°22.957 3°2.399 39.2 4.4 25 -999
2008-10-03 07:30:20 51°23.091 3°2.521 42.2 4.5 30 -999
2008-10-03 07:32:20 51°23.217 3°2.634 41.1 4.29 25 -999
2008-10-03 07:34:20 51°23.345 3°2.745 42 4.29 26 -999
2008-10-03 07:36:20 51°23.468 3°2.858 40.7 4.2 24 -999
2008-10-03 07:38:20 51°23.532 3°3.039 70.5 4.2 71 -999
2008-10-03 07:40:20 51°23.482 3°3.21 132.6 3.6 144 -999
2008-10-03 07:42:20 51°23.383 3°3.132 210.6 4.2 232 -999
2008-10-03 07:44:20 51°23.402 3°2.911 288.3 4 289 -999
2008-10-03 07:46:20 51°23.462 3°2.734 317.6 3.5 305 -999
2008-10-03 07:48:20 51°23.474 3°2.566 251.8 3 261 -999
2008-10-03 07:50:20 51°23.341 3°2.509 172.5 5.2 185 -999
2008-10-03 07:52:20 51°23.203 3°2.434 187.4 4 203 -999
2008-10-03 07:54:20 51°23.087 3°2.352 184.3 3.7 202 -999
2008-10-03 07:56:20 51°22.972 3°2.293 177.8 3.6 197 -999
2008-10-03 07:58:20 51°22.854 3°2.221 183 3.79 203 -999
2008-10-03 08:00:20 51°22.733 3°2.152 180.1 3.79 197 -999
2008-10-03 08:02:20 51°22.609 3°2.077 179.4 4.09 203 -999
2008-10-03 08:04:20 51°22.554 3°2.147 92 3 99 -999
2008-10-03 08:06:20 51°22.549 3°2.396 90 5 95 -999
2008-10-03 08:08:20 51°22.605 3°2.506 20.1 3.29 349 -999
2008-10-03 08:10:20 51°22.644 3°2.299 275.6 4.29 277 -999
2008-10-03 08:12:20 51°22.666 3°2.062 279.1 4.59 276 -999
2008-10-03 08:14:20 51°22.671 3°1.845 276 4 274 -999
2008-10-03 08:16:20 51°22.601 3°1.726 170.5 3.2 187 -999
2008-10-03 08:18:20 51°22.65 3°1.911 66.4 5.09 63 -999
2008-10-03 08:20:20 51°22.668 3°2.114 83.9 3.5 81 -999
2008-10-03 08:22:20 51°22.667 3°2.316 86.2 4.5 90 -999
2008-10-03 08:24:20 51°22.622 3°2.533 100.2 4 94 -999
2008-10-03 08:26:20 51°22.694 3°2.431 299.8 4.2 283 -999
2008-10-03 08:28:20 51°22.67 3°2.201 263.1 4.2 265 -999
2008-10-03 08:30:20 51°22.654 3°1.983 261.1 4.2 259 -999
2008-10-03 08:32:20 51°22.657 3°1.745 284.1 4.59 279 -999
2008-10-03 08:34:20 51°22.61 3°1.529 216.9 5.29 216 -999
2008-10-03 08:36:20 51°22.598 3°1.709 71.4 5.09 71 -999
2008-10-03 08:38:20 51°22.626 3°1.905 72.7 3.39 80 -999
2008-10-03 08:40:20 51°22.663 3°2.118 77.2 4.59 79 -999
2008-10-03 08:42:20 51°22.655 3°2.375 95.5 5 103 -999
2008-10-03 08:44:20 51°22.645 3°2.617 85.9 4.09 79 -999
2008-10-03 08:46:20 51°22.693 3°2.432 262.1 6 256 -999
2008-10-03 08:48:20 51°22.665 3°2.194 272.1 3.89 268 -999
2008-10-03 08:50:20 51°22.664 3°1.988 282.3 4.2 273 -999
2008-10-03 08:52:20 51°22.77 3°1.902 19.5 3.79 12 -999
2008-10-03 08:54:20 51°22.86 3°2.09 55.1 4.79 51 -999
2008-10-03 08:56:20 51°22.93 3°2.286 61.2 4.2 62 -999
2008-10-03 08:58:20 51°22.999 3°2.48 61.7 4.2 60 -999
2008-10-03 09:00:20 51°23.069 3°2.676 61.1 4.2 61 -999
2008-10-03 09:02:20 51°23.137 3°2.865 61.3 4 63 -999
2008-10-03 09:04:20 51°23.202 3°3.051 61.5 4.09 57 -999
2008-10-03 09:06:20 51°23.304 3°3.157 23.8 4 7 -999
2008-10-03 09:08:20 51°23.414 3°2.989 310 4.59 292 -999
2008-10-03 09:10:20 51°23.443 3°2.773 301.6 4 283 -999
2008-10-03 09:12:20 51°23.47 3°2.569 298.5 4.09 283 -999
2008-10-03 09:14:20 51°23.435 3°2.364 229.4 4.7 224 -999
2008-10-03 09:16:20 51°23.401 3°2.467 55.7 3.6 56 -999
2008-10-03 09:18:20 51°23.434 3°2.681 77.2 3.7 85 -999
2008-10-03 09:20:20 51°23.452 3°2.861 77.2 3.6 86 -999
2008-10-03 09:22:20 51°23.391 3°3.084 115.4 5.29 129 -999
2008-10-03 09:24:20 51°23.283 3°3.264 107.2 3.29 108 -999
2008-10-03 09:26:20 51°23.383 3°3.207 338.6 4.79 319 -999
2008-10-03 09:28:20 51°23.447 3°2.984 302.8 4.5 285 -999
2008-10-03 09:30:20 51°23.441 3°2.775 277.3 3.89 265 -999
2008-10-03 09:32:20 51°23.457 3°2.589 298.1 3.5 279 -999
2008-10-03 09:34:20 51°23.393 3°2.407 203 4.29 216 -999
2008-10-03 09:36:20 51°23.367 3°2.481 57.6 2.79 55 -999
2008-10-03 09:38:20 51°23.428 3°2.655 71 3.6 78 -999
2008-10-03 09:40:20 51°23.445 3°2.837 73 3.5 84 -999
2008-10-03 09:42:20 51°23.469 3°3.007 72.9 3.29 80 -999
2008-10-03 09:44:20 51°23.541 3°3.125 49.8 3.2 42 -999
2008-10-03 09:46:20 51°23.627 3°3.243 54.1 3.39 46 -999
2008-10-03 09:48:20 51°23.66 3°3.42 65.7 3.5 74 -999
2008-10-03 09:50:20 51°23.703 3°3.535 23.6 3.5 354 -999
2008-10-03 09:52:20 51°23.691 3°3.314 234.8 4.79 238 -999
2008-10-03 09:54:20 51°23.586 3°3.158 213 4.4 224 -999
2008-10-03 09:56:20 51°23.505 3°2.958 237.8 4.5 239 -999
2008-10-03 09:58:20 51°23.421 3°2.764 237.4 4.5 237 -999
2008-10-03 10:00:20 51°23.343 3°2.572 225.9 4.29 231 -999
2008-10-03 10:02:20 51°23.244 3°2.374 229.8 5.2 231 -999
2008-10-03 10:04:20 51°23.016 3°1.893 230 13.3 234 -999
2008-10-03 10:06:20 51°22.708 3°1.375 219.1 13.3 225 -999
2008-10-03 10:08:20 51°22.387 3°0.89 220 13.4 226 -999
2008-10-03 10:10:20 51°22.067 3°0.392 221 13.5 227 -999
2008-10-03 10:12:20 51°21.764 2°59.866 227.6 13.5 229 -999
2008-10-03 10:14:20 51°21.469 2°59.327 224.4 13.4 226 -999
2008-10-03 10:16:20 51°21.177 2°58.777 227.5 13.59 228 -999
2008-10-03 10:18:20 51°20.878 2°58.228 225.9 13.8 228 -999
2008-10-03 10:20:20 51°20.576 2°57.69 224 13.4 226 -999
2008-10-03 10:22:20 51°20.271 2°57.152 223.8 13.8 230 -999
2008-10-03 10:24:20 51°19.97 2°56.612 227 13.59 226 -999
2008-10-03 10:26:20 51°19.664 2°56.085 225.8 13.4 225 -999
2008-10-03 10:28:20 51°19.361 2°55.56 226.8 13.4 224 -999
2008-10-03 10:30:20 51°19.05 2°55.054 221.6 13.3 223 -999
2008-10-03 10:32:20 51°18.719 2°54.583 221 13.19 221 -999
2008-10-03 10:34:20 51°18.392 2°54.111 220.6 13.09 217 -999
2008-10-03 10:36:20 51°18.055 2°53.65 219 13.4 222 -999
2008-10-03 10:38:20 51°17.733 2°53.17 224 13.4 221 -999
2008-10-03 10:40:20 51°17.407 2°52.705 221.3 13.4 223 -999
2008-10-03 10:42:20 51°17.009 2°52.653 162.3 12.19 160 -999
2008-10-03 10:44:20 51°16.646 2°52.966 146.1 12.69 154 -999
2008-10-03 10:46:20 51°16.269 2°53.263 148.5 12.5 155 -999
2008-10-03 10:48:20 51°15.899 2°53.552 146.4 12 155 -999
2008-10-03 10:50:20 51°15.529 2°53.83 149.4 12.8 154 -999
2008-10-03 10:52:20 51°15.165 2°54.119 145.8 12.09 152 -999
2008-10-03 10:54:20 51°14.833 2°54.488 139.3 12 139 -999
2008-10-03 10:56:20 51°14.519 2°54.873 134.8 11.9 141 -999